sensor_id;sensor_type;location;lat;lon;timestamp;P1;durP1;ratioP1;P2;durP2;ratioP2
75614;SDS011;64199;48.578;-4.520;2024-03-07T00:01:01;1.92;;;1.40;;
75614;SDS011;64199;48.578;-4.520;2024-03-07T00:03:28;1.85;;;1.15;;
75614;SDS011;64199;48.578;-4.520;2024-03-07T00:05:54;2.58;;;1.38;;
75614;SDS011;64199;48.578;-4.520;2024-03-07T00:08:20;2.08;;;1.20;;
75614;SDS011;64199;48.578;-4.520;2024-03-07T00:10:46;2.38;;;1.15;;
75614;SDS011;64199;48.578;-4.520;2024-03-07T00:13:12;3.03;;;1.35;;
75614;SDS011;64199;48.578;-4.520;2024-03-07T00:15:38;3.75;;;1.60;;
75614;SDS011;64199;48.578;-4.520;2024-03-07T00:18:05;3.17;;;1.60;;
75614;SDS011;64199;48.578;-4.520;2024-03-07T00:20:31;2.20;;;1.00;;
75614;SDS011;64199;48.578;-4.520;2024-03-07T00:22:57;1.83;;;1.30;;
75614;SDS011;64199;48.578;-4.520;2024-03-07T00:25:22;2.10;;;1.40;;
75614;SDS011;64199;48.578;-4.520;2024-03-07T00:27:48;3.00;;;1.30;;
75614;SDS011;64199;48.578;-4.520;2024-03-07T00:30:18;5.22;;;1.15;;
75614;SDS011;64199;48.578;-4.520;2024-03-07T00:32:45;1.35;;;1.00;;
75614;SDS011;64199;48.578;-4.520;2024-03-07T00:35:12;1.90;;;1.15;;
75614;SDS011;64199;48.578;-4.520;2024-03-07T00:37:38;3.20;;;1.23;;
75614;SDS011;64199;48.578;-4.520;2024-03-07T00:40:04;2.47;;;1.30;;
75614;SDS011;64199;48.578;-4.520;2024-03-07T00:42:31;2.70;;;1.40;;
75614;SDS011;64199;48.578;-4.520;2024-03-07T00:44:57;4.60;;;1.25;;
75614;SDS011;64199;48.578;-4.520;2024-03-07T00:47:23;2.55;;;1.23;;
75614;SDS011;64199;48.578;-4.520;2024-03-07T00:49:48;2.60;;;1.00;;
75614;SDS011;64199;48.578;-4.520;2024-03-07T00:52:15;1.83;;;1.20;;
75614;SDS011;64199;48.578;-4.520;2024-03-07T00:54:41;2.40;;;1.08;;
75614;SDS011;64199;48.578;-4.520;2024-03-07T00:57:07;3.38;;;1.48;;
75614;SDS011;64199;48.578;-4.520;2024-03-07T00:59:34;2.95;;;1.20;;
75614;SDS011;64199;48.578;-4.520;2024-03-07T01:02:00;2.78;;;1.20;;
75614;SDS011;64199;48.578;-4.520;2024-03-07T01:04:26;1.65;;;0.90;;
75614;SDS011;64199;48.578;-4.520;2024-03-07T01:06:56;2.70;;;1.20;;
75614;SDS011;64199;48.578;-4.520;2024-03-07T01:09:23;2.22;;;1.00;;
75614;SDS011;64199;48.578;-4.520;2024-03-07T01:11:49;1.92;;;1.00;;
75614;SDS011;64199;48.578;-4.520;2024-03-07T01:14:15;1.80;;;1.10;;
75614;SDS011;64199;48.578;-4.520;2024-03-07T01:16:41;3.83;;;1.38;;
75614;SDS011;64199;48.578;-4.520;2024-03-07T01:19:07;4.95;;;1.00;;
75614;SDS011;64199;48.578;-4.520;2024-03-07T01:21:33;1.83;;;1.20;;
75614;SDS011;64199;48.578;-4.520;2024-03-07T01:24:00;2.50;;;1.02;;
75614;SDS011;64199;48.578;-4.520;2024-03-07T01:26:29;2.35;;;1.30;;
75614;SDS011;64199;48.578;-4.520;2024-03-07T01:28:56;1.20;;;0.90;;
75614;SDS011;64199;48.578;-4.520;2024-03-07T01:31:23;2.95;;;1.20;;
75614;SDS011;64199;48.578;-4.520;2024-03-07T01:33:49;1.05;;;0.80;;
75614;SDS011;64199;48.578;-4.520;2024-03-07T01:36:15;1.35;;;1.13;;
75614;SDS011;64199;48.578;-4.520;2024-03-07T01:38:41;2.20;;;1.23;;
75614;SDS011;64199;48.578;-4.520;2024-03-07T01:41:07;3.78;;;0.95;;
75614;SDS011;64199;48.578;-4.520;2024-03-07T01:43:33;1.23;;;1.00;;
75614;SDS011;64199;48.578;-4.520;2024-03-07T01:45:59;2.05;;;1.00;;
75614;SDS011;64199;48.578;-4.520;2024-03-07T01:48:26;3.33;;;1.05;;
75614;SDS011;64199;48.578;-4.520;2024-03-07T01:50:57;2.72;;;1.05;;
75614;SDS011;64199;48.578;-4.520;2024-03-07T01:53:27;1.15;;;0.80;;
75614;SDS011;64199;48.578;-4.520;2024-03-07T01:55:54;1.10;;;0.82;;
75614;SDS011;64199;48.578;-4.520;2024-03-07T01:58:20;1.23;;;0.80;;
75614;SDS011;64199;48.578;-4.520;2024-03-07T02:00:47;1.20;;;0.85;;
75614;SDS011;64199;48.578;-4.520;2024-03-07T02:03:13;1.30;;;0.98;;
75614;SDS011;64199;48.578;-4.520;2024-03-07T02:05:39;1.45;;;0.82;;
75614;SDS011;64199;48.578;-4.520;2024-03-07T02:08:06;1.25;;;1.00;;
75614;SDS011;64199;48.578;-4.520;2024-03-07T02:10:31;1.27;;;0.70;;
75614;SDS011;64199;48.578;-4.520;2024-03-07T02:12:57;1.50;;;0.75;;
75614;SDS011;64199;48.578;-4.520;2024-03-07T02:15:23;1.58;;;0.80;;
75614;SDS011;64199;48.578;-4.520;2024-03-07T02:17:49;0.50;;;0.45;;
75614;SDS011;64199;48.578;-4.520;2024-03-07T02:20:15;1.20;;;0.70;;
75614;SDS011;64199;48.578;-4.520;2024-03-07T02:22:41;1.17;;;0.73;;
75614;SDS011;64199;48.578;-4.520;2024-03-07T02:25:07;0.80;;;0.60;;
75614;SDS011;64199;48.578;-4.520;2024-03-07T02:27:36;0.88;;;0.70;;
75614;SDS011;64199;48.578;-4.520;2024-03-07T02:30:03;1.90;;;0.70;;
75614;SDS011;64199;48.578;-4.520;2024-03-07T02:32:31;0.80;;;0.63;;
75614;SDS011;64199;48.578;-4.520;2024-03-07T02:34:57;0.77;;;0.60;;
75614;SDS011;64199;48.578;-4.520;2024-03-07T02:37:23;0.50;;;0.47;;
75614;SDS011;64199;48.578;-4.520;2024-03-07T02:39:49;0.70;;;0.60;;
75614;SDS011;64199;48.578;-4.520;2024-03-07T02:42:15;1.13;;;0.70;;
75614;SDS011;64199;48.578;-4.520;2024-03-07T02:44:41;0.98;;;0.60;;
75614;SDS011;64199;48.578;-4.520;2024-03-07T02:50:15;0.90;;;0.60;;
75614;SDS011;64199;48.578;-4.520;2024-03-07T02:52:41;0.70;;;0.45;;
75614;SDS011;64199;48.578;-4.520;2024-03-07T02:55:07;0.82;;;0.40;;
75614;SDS011;64199;48.578;-4.520;2024-03-07T02:57:35;0.60;;;0.50;;
75614;SDS011;64199;48.578;-4.520;2024-03-07T03:00:02;1.27;;;0.50;;
75614;SDS011;64199;48.578;-4.520;2024-03-07T03:02:33;0.68;;;0.50;;
75614;SDS011;64199;48.578;-4.520;2024-03-07T03:04:59;1.13;;;0.75;;
75614;SDS011;64199;48.578;-4.520;2024-03-07T03:07:25;0.60;;;0.43;;
75614;SDS011;64199;48.578;-4.520;2024-03-07T03:09:50;0.68;;;0.63;;
75614;SDS011;64199;48.578;-4.520;2024-03-07T03:12:16;0.40;;;0.40;;
75614;SDS011;64199;48.578;-4.520;2024-03-07T03:14:42;0.50;;;0.50;;
75614;SDS011;64199;48.578;-4.520;2024-03-07T03:17:08;0.82;;;0.60;;
75614;SDS011;64199;48.578;-4.520;2024-03-07T03:19:34;0.60;;;0.43;;
75614;SDS011;64199;48.578;-4.520;2024-03-07T03:22:01;0.40;;;0.40;;
75614;SDS011;64199;48.578;-4.520;2024-03-07T03:24:27;0.47;;;0.40;;
75614;SDS011;64199;48.578;-4.520;2024-03-07T03:26:52;0.57;;;0.57;;
75614;SDS011;64199;48.578;-4.520;2024-03-07T03:29:18;0.60;;;0.60;;
75614;SDS011;64199;48.578;-4.520;2024-03-07T03:31:44;0.40;;;0.40;;
75614;SDS011;64199;48.578;-4.520;2024-03-07T03:34:10;0.60;;;0.40;;
75614;SDS011;64199;48.578;-4.520;2024-03-07T03:36:36;0.50;;;0.40;;
75614;SDS011;64199;48.578;-4.520;2024-03-07T03:39:02;0.32;;;0.30;;
75614;SDS011;64199;48.578;-4.520;2024-03-07T03:41:28;2.33;;;0.50;;
75614;SDS011;64199;48.578;-4.520;2024-03-07T03:43:53;0.35;;;0.30;;
75614;SDS011;64199;48.578;-4.520;2024-03-07T03:46:19;0.50;;;0.40;;
75614;SDS011;64199;48.578;-4.520;2024-03-07T03:48:45;0.30;;;0.30;;
75614;SDS011;64199;48.578;-4.520;2024-03-07T03:51:11;0.38;;;0.30;;
75614;SDS011;64199;48.578;-4.520;2024-03-07T03:53:38;0.47;;;0.40;;
75614;SDS011;64199;48.578;-4.520;2024-03-07T03:56:04;0.40;;;0.40;;
75614;SDS011;64199;48.578;-4.520;2024-03-07T03:58:31;0.95;;;0.45;;
75614;SDS011;64199;48.578;-4.520;2024-03-07T04:00:57;0.57;;;0.40;;
75614;SDS011;64199;48.578;-4.520;2024-03-07T04:03:26;0.20;;;0.20;;
75614;SDS011;64199;48.578;-4.520;2024-03-07T04:05:51;0.90;;;0.30;;
75614;SDS011;64199;48.578;-4.520;2024-03-07T04:08:17;0.30;;;0.30;;
75614;SDS011;64199;48.578;-4.520;2024-03-07T04:10:45;0.33;;;0.33;;
75614;SDS011;64199;48.578;-4.520;2024-03-07T04:13:11;0.50;;;0.50;;
75614;SDS011;64199;48.578;-4.520;2024-03-07T04:15:37;0.65;;;0.35;;
75614;SDS011;64199;48.578;-4.520;2024-03-07T04:18:02;0.30;;;0.30;;
75614;SDS011;64199;48.578;-4.520;2024-03-07T04:20:28;0.40;;;0.40;;
75614;SDS011;64199;48.578;-4.520;2024-03-07T04:22:54;0.38;;;0.30;;
75614;SDS011;64199;48.578;-4.520;2024-03-07T04:25:20;0.20;;;0.20;;
75614;SDS011;64199;48.578;-4.520;2024-03-07T04:27:46;0.50;;;0.40;;
75614;SDS011;64199;48.578;-4.520;2024-03-07T04:30:14;0.45;;;0.45;;
75614;SDS011;64199;48.578;-4.520;2024-03-07T04:32:41;1.38;;;0.38;;
75614;SDS011;64199;48.578;-4.520;2024-03-07T04:35:07;0.60;;;0.32;;
75614;SDS011;64199;48.578;-4.520;2024-03-07T04:37:35;0.50;;;0.27;;
75614;SDS011;64199;48.578;-4.520;2024-03-07T04:40:06;0.30;;;0.30;;
75614;SDS011;64199;48.578;-4.520;2024-03-07T04:45:08;1.40;;;0.28;;
75614;SDS011;64199;48.578;-4.520;2024-03-07T04:47:41;0.30;;;0.30;;
75614;SDS011;64199;48.578;-4.520;2024-03-07T04:50:11;1.95;;;0.30;;
75614;SDS011;64199;48.578;-4.520;2024-03-07T04:52:38;0.22;;;0.20;;
75614;SDS011;64199;48.578;-4.520;2024-03-07T04:55:07;0.32;;;0.32;;
75614;SDS011;64199;48.578;-4.520;2024-03-07T04:57:36;0.30;;;0.30;;
75614;SDS011;64199;48.578;-4.520;2024-03-07T05:00:08;0.20;;;0.20;;
75614;SDS011;64199;48.578;-4.520;2024-03-07T05:02:44;0.10;;;0.10;;
75614;SDS011;64199;48.578;-4.520;2024-03-07T05:05:11;0.30;;;0.30;;
75614;SDS011;64199;48.578;-4.520;2024-03-07T05:07:38;1.05;;;0.28;;
75614;SDS011;64199;48.578;-4.520;2024-03-07T05:10:05;0.32;;;0.30;;
75614;SDS011;64199;48.578;-4.520;2024-03-07T05:12:32;0.47;;;0.40;;
75614;SDS011;64199;48.578;-4.520;2024-03-07T05:14:58;0.20;;;0.20;;
75614;SDS011;64199;48.578;-4.520;2024-03-07T05:17:24;0.20;;;0.20;;
75614;SDS011;64199;48.578;-4.520;2024-03-07T05:19:50;0.30;;;0.30;;
75614;SDS011;64199;48.578;-4.520;2024-03-07T05:22:15;0.28;;;0.28;;
75614;SDS011;64199;48.578;-4.520;2024-03-07T05:24:43;0.20;;;0.20;;
75614;SDS011;64199;48.578;-4.520;2024-03-07T05:27:09;0.50;;;0.38;;
75614;SDS011;64199;48.578;-4.520;2024-03-07T05:29:38;0.30;;;0.30;;
75614;SDS011;64199;48.578;-4.520;2024-03-07T05:34:49;0.20;;;0.20;;
75614;SDS011;64199;48.578;-4.520;2024-03-07T05:37:14;0.40;;;0.30;;
75614;SDS011;64199;48.578;-4.520;2024-03-07T05:39:40;0.20;;;0.20;;
75614;SDS011;64199;48.578;-4.520;2024-03-07T05:42:06;1.95;;;0.38;;
75614;SDS011;64199;48.578;-4.520;2024-03-07T05:44:32;0.10;;;0.10;;
75614;SDS011;64199;48.578;-4.520;2024-03-07T05:46:58;0.30;;;0.20;;
75614;SDS011;64199;48.578;-4.520;2024-03-07T05:49:24;0.13;;;0.13;;
75614;SDS011;64199;48.578;-4.520;2024-03-07T05:51:50;0.30;;;0.30;;
75614;SDS011;64199;48.578;-4.520;2024-03-07T05:54:16;0.20;;;0.20;;
75614;SDS011;64199;48.578;-4.520;2024-03-07T05:56:44;0.52;;;0.30;;
75614;SDS011;64199;48.578;-4.520;2024-03-07T05:59:10;0.20;;;0.20;;
75614;SDS011;64199;48.578;-4.520;2024-03-07T06:01:36;0.10;;;0.10;;
75614;SDS011;64199;48.578;-4.520;2024-03-07T06:04:02;0.93;;;0.20;;
75614;SDS011;64199;48.578;-4.520;2024-03-07T06:06:34;0.10;;;0.10;;
75614;SDS011;64199;48.578;-4.520;2024-03-07T06:09:04;0.20;;;0.20;;
75614;SDS011;64199;48.578;-4.520;2024-03-07T06:11:33;0.30;;;0.30;;
75614;SDS011;64199;48.578;-4.520;2024-03-07T06:14:00;0.20;;;0.20;;
75614;SDS011;64199;48.578;-4.520;2024-03-07T06:16:31;0.55;;;0.30;;
75614;SDS011;64199;48.578;-4.520;2024-03-07T06:19:01;0.30;;;0.30;;
75614;SDS011;64199;48.578;-4.520;2024-03-07T06:21:28;0.20;;;0.20;;
75614;SDS011;64199;48.578;-4.520;2024-03-07T06:23:57;0.10;;;0.10;;
75614;SDS011;64199;48.578;-4.520;2024-03-07T06:26:29;0.20;;;0.20;;
75614;SDS011;64199;48.578;-4.520;2024-03-07T06:29:22;0.20;;;0.20;;
75614;SDS011;64199;48.578;-4.520;2024-03-07T06:31:48;0.20;;;0.20;;
75614;SDS011;64199;48.578;-4.520;2024-03-07T06:34:14;0.30;;;0.22;;
75614;SDS011;64199;48.578;-4.520;2024-03-07T06:36:40;0.20;;;0.20;;
75614;SDS011;64199;48.578;-4.520;2024-03-07T06:39:06;0.30;;;0.30;;
75614;SDS011;64199;48.578;-4.520;2024-03-07T06:41:35;0.30;;;0.30;;
75614;SDS011;64199;48.578;-4.520;2024-03-07T06:44:02;1.45;;;0.20;;
75614;SDS011;64199;48.578;-4.520;2024-03-07T06:46:28;0.30;;;0.20;;
75614;SDS011;64199;48.578;-4.520;2024-03-07T06:48:54;0.38;;;0.28;;
75614;SDS011;64199;48.578;-4.520;2024-03-07T06:51:21;0.25;;;0.20;;
75614;SDS011;64199;48.578;-4.520;2024-03-07T06:53:47;0.20;;;0.20;;
75614;SDS011;64199;48.578;-4.520;2024-03-07T06:56:15;0.20;;;0.20;;
75614;SDS011;64199;48.578;-4.520;2024-03-07T06:58:41;0.20;;;0.20;;
75614;SDS011;64199;48.578;-4.520;2024-03-07T07:01:08;0.30;;;0.30;;
75614;SDS011;64199;48.578;-4.520;2024-03-07T07:03:37;0.30;;;0.30;;
75614;SDS011;64199;48.578;-4.520;2024-03-07T07:06:03;0.30;;;0.30;;
75614;SDS011;64199;48.578;-4.520;2024-03-07T07:08:32;0.30;;;0.30;;
75614;SDS011;64199;48.578;-4.520;2024-03-07T07:10:58;0.13;;;0.13;;
75614;SDS011;64199;48.578;-4.520;2024-03-07T07:13:24;0.80;;;0.30;;
75614;SDS011;64199;48.578;-4.520;2024-03-07T07:15:50;0.20;;;0.20;;
75614;SDS011;64199;48.578;-4.520;2024-03-07T07:18:17;0.20;;;0.20;;
75614;SDS011;64199;48.578;-4.520;2024-03-07T07:20:42;0.25;;;0.25;;
75614;SDS011;64199;48.578;-4.520;2024-03-07T07:23:08;0.20;;;0.20;;
75614;SDS011;64199;48.578;-4.520;2024-03-07T07:25:34;0.40;;;0.40;;
75614;SDS011;64199;48.578;-4.520;2024-03-07T07:28:00;0.70;;;0.40;;
75614;SDS011;64199;48.578;-4.520;2024-03-07T07:30:29;0.30;;;0.30;;
75614;SDS011;64199;48.578;-4.520;2024-03-07T07:32:56;0.30;;;0.30;;
75614;SDS011;64199;48.578;-4.520;2024-03-07T07:35:22;0.65;;;0.50;;
75614;SDS011;64199;48.578;-4.520;2024-03-07T07:37:49;0.47;;;0.47;;
75614;SDS011;64199;48.578;-4.520;2024-03-07T07:40:21;0.40;;;0.40;;
75614;SDS011;64199;48.578;-4.520;2024-03-07T07:42:51;0.40;;;0.40;;
75614;SDS011;64199;48.578;-4.520;2024-03-07T07:45:18;0.60;;;0.50;;
75614;SDS011;64199;48.578;-4.520;2024-03-07T07:47:47;0.57;;;0.43;;
75614;SDS011;64199;48.578;-4.520;2024-03-07T07:50:18;2.45;;;0.47;;
75614;SDS011;64199;48.578;-4.520;2024-03-07T07:52:48;0.82;;;0.60;;
75614;SDS011;64199;48.578;-4.520;2024-03-07T07:55:25;0.50;;;0.50;;
75614;SDS011;64199;48.578;-4.520;2024-03-07T07:57:55;0.82;;;0.50;;
75614;SDS011;64199;48.578;-4.520;2024-03-07T08:00:23;0.60;;;0.60;;
75614;SDS011;64199;48.578;-4.520;2024-03-07T08:05:24;0.40;;;0.40;;
75614;SDS011;64199;48.578;-4.520;2024-03-07T08:07:55;1.27;;;0.30;;
75614;SDS011;64199;48.578;-4.520;2024-03-07T08:10:23;0.30;;;0.30;;
75614;SDS011;64199;48.578;-4.520;2024-03-07T08:12:53;0.77;;;0.50;;
75614;SDS011;64199;48.578;-4.520;2024-03-07T08:15:29;0.43;;;0.43;;
75614;SDS011;64199;48.578;-4.520;2024-03-07T08:17:56;0.77;;;0.43;;
75614;SDS011;64199;48.578;-4.520;2024-03-07T08:20:23;0.40;;;0.40;;
75614;SDS011;64199;48.578;-4.520;2024-03-07T08:22:51;0.60;;;0.50;;
75614;SDS011;64199;48.578;-4.520;2024-03-07T08:25:18;2.60;;;0.90;;
75614;SDS011;64199;48.578;-4.520;2024-03-07T08:27:47;1.03;;;0.73;;
75614;SDS011;64199;48.578;-4.520;2024-03-07T08:30:13;1.97;;;0.60;;
75614;SDS011;64199;48.578;-4.520;2024-03-07T08:32:41;8.13;;;0.73;;
75614;SDS011;64199;48.578;-4.520;2024-03-07T08:35:08;6.82;;;0.80;;
75614;SDS011;64199;48.578;-4.520;2024-03-07T08:37:53;10.88;;;1.08;;
75614;SDS011;64199;48.578;-4.520;2024-03-07T08:40:21;13.75;;;1.00;;
75614;SDS011;64199;48.578;-4.520;2024-03-07T08:42:49;13.23;;;1.17;;
75614;SDS011;64199;48.578;-4.520;2024-03-07T08:45:17;8.93;;;0.60;;
75614;SDS011;64199;48.578;-4.520;2024-03-07T08:47:47;4.07;;;0.60;;
75614;SDS011;64199;48.578;-4.520;2024-03-07T08:50:15;9.27;;;0.90;;
75614;SDS011;64199;48.578;-4.520;2024-03-07T08:52:43;9.43;;;1.02;;
75614;SDS011;64199;48.578;-4.520;2024-03-07T08:55:20;6.97;;;0.57;;
75614;SDS011;64199;48.578;-4.520;2024-03-07T08:57:47;8.55;;;0.80;;
75614;SDS011;64199;48.578;-4.520;2024-03-07T09:00:14;2.92;;;0.70;;
75614;SDS011;64199;48.578;-4.520;2024-03-07T09:02:57;6.97;;;0.80;;
75614;SDS011;64199;48.578;-4.520;2024-03-07T09:05:23;3.55;;;0.60;;
75614;SDS011;64199;48.578;-4.520;2024-03-07T09:07:50;1.13;;;0.50;;
75614;SDS011;64199;48.578;-4.520;2024-03-07T09:10:17;2.40;;;0.60;;
75614;SDS011;64199;48.578;-4.520;2024-03-07T09:12:43;3.15;;;0.52;;
75614;SDS011;64199;48.578;-4.520;2024-03-07T09:15:09;3.03;;;0.60;;
75614;SDS011;64199;48.578;-4.520;2024-03-07T09:17:36;2.15;;;0.60;;
75614;SDS011;64199;48.578;-4.520;2024-03-07T09:20:03;1.75;;;0.70;;
75614;SDS011;64199;48.578;-4.520;2024-03-07T09:22:30;1.53;;;0.70;;
75614;SDS011;64199;48.578;-4.520;2024-03-07T09:24:58;0.60;;;0.60;;
75614;SDS011;64199;48.578;-4.520;2024-03-07T09:27:24;3.28;;;0.80;;
75614;SDS011;64199;48.578;-4.520;2024-03-07T09:29:50;1.13;;;0.60;;
75614;SDS011;64199;48.578;-4.520;2024-03-07T09:32:16;0.57;;;0.40;;
75614;SDS011;64199;48.578;-4.520;2024-03-07T09:34:42;2.08;;;0.40;;
75614;SDS011;64199;48.578;-4.520;2024-03-07T09:37:08;2.33;;;0.68;;
75614;SDS011;64199;48.578;-4.520;2024-03-07T09:39:34;3.30;;;0.82;;
75614;SDS011;64199;48.578;-4.520;2024-03-07T09:42:01;1.80;;;0.90;;
75614;SDS011;64199;48.578;-4.520;2024-03-07T09:44:27;3.20;;;0.85;;
75614;SDS011;64199;48.578;-4.520;2024-03-07T09:46:54;1.23;;;0.55;;
75614;SDS011;64199;48.578;-4.520;2024-03-07T09:49:24;0.63;;;0.50;;
75614;SDS011;64199;48.578;-4.520;2024-03-07T09:51:51;2.53;;;0.60;;
75614;SDS011;64199;48.578;-4.520;2024-03-07T09:56:54;1.33;;;0.60;;
75614;SDS011;64199;48.578;-4.520;2024-03-07T09:59:23;1.23;;;0.57;;
75614;SDS011;64199;48.578;-4.520;2024-03-07T10:01:56;1.30;;;0.70;;
75614;SDS011;64199;48.578;-4.520;2024-03-07T10:04:31;0.70;;;0.50;;
75614;SDS011;64199;48.578;-4.520;2024-03-07T10:07:08;1.13;;;0.70;;
75614;SDS011;64199;48.578;-4.520;2024-03-07T10:09:38;0.90;;;0.60;;
75614;SDS011;64199;48.578;-4.520;2024-03-07T10:12:06;1.95;;;0.65;;
75614;SDS011;64199;48.578;-4.520;2024-03-07T10:14:45;1.55;;;0.60;;
75614;SDS011;64199;48.578;-4.520;2024-03-07T10:17:14;1.08;;;0.43;;
75614;SDS011;64199;48.578;-4.520;2024-03-07T10:19:40;0.55;;;0.47;;
75614;SDS011;64199;48.578;-4.520;2024-03-07T10:22:06;1.25;;;0.60;;
75614;SDS011;64199;48.578;-4.520;2024-03-07T10:24:32;0.50;;;0.50;;
75614;SDS011;64199;48.578;-4.520;2024-03-07T10:26:58;1.15;;;0.50;;
75614;SDS011;64199;48.578;-4.520;2024-03-07T10:29:26;0.43;;;0.37;;
75614;SDS011;64199;48.578;-4.520;2024-03-07T10:31:52;0.52;;;0.47;;
75614;SDS011;64199;48.578;-4.520;2024-03-07T10:34:17;0.70;;;0.55;;
75614;SDS011;64199;48.578;-4.520;2024-03-07T10:36:43;0.60;;;0.40;;
75614;SDS011;64199;48.578;-4.520;2024-03-07T10:39:10;0.93;;;0.40;;
75614;SDS011;64199;48.578;-4.520;2024-03-07T10:41:45;0.70;;;0.40;;
75614;SDS011;64199;48.578;-4.520;2024-03-07T10:44:46;0.60;;;0.30;;
75614;SDS011;64199;48.578;-4.520;2024-03-07T10:47:09;0.52;;;0.50;;
75614;SDS011;64199;48.578;-4.520;2024-03-07T10:52:39;0.50;;;0.50;;
75614;SDS011;64199;48.578;-4.520;2024-03-07T10:55:15;0.60;;;0.60;;
75614;SDS011;64199;48.578;-4.520;2024-03-07T10:57:54;1.33;;;0.50;;
75614;SDS011;64199;48.578;-4.520;2024-03-07T11:00:27;0.45;;;0.45;;
75614;SDS011;64199;48.578;-4.520;2024-03-07T11:03:01;0.45;;;0.38;;
75614;SDS011;64199;48.578;-4.520;2024-03-07T11:05:32;0.63;;;0.45;;
75614;SDS011;64199;48.578;-4.520;2024-03-07T11:07:59;0.75;;;0.50;;
75614;SDS011;64199;48.578;-4.520;2024-03-07T11:10:52;0.38;;;0.30;;
75614;SDS011;64199;48.578;-4.520;2024-03-07T11:13:18;0.40;;;0.40;;
75614;SDS011;64199;48.578;-4.520;2024-03-07T11:15:45;0.40;;;0.40;;
75614;SDS011;64199;48.578;-4.520;2024-03-07T11:18:13;0.47;;;0.20;;
75614;SDS011;64199;48.578;-4.520;2024-03-07T11:20:40;0.47;;;0.40;;
75614;SDS011;64199;48.578;-4.520;2024-03-07T11:26:07;0.50;;;0.50;;
75614;SDS011;64199;48.578;-4.520;2024-03-07T11:28:34;0.25;;;0.20;;
75614;SDS011;64199;48.578;-4.520;2024-03-07T11:31:13;0.30;;;0.30;;
75614;SDS011;64199;48.578;-4.520;2024-03-07T11:33:41;0.40;;;0.40;;
75614;SDS011;64199;48.578;-4.520;2024-03-07T11:36:08;0.30;;;0.30;;
75614;SDS011;64199;48.578;-4.520;2024-03-07T11:38:38;0.20;;;0.20;;
75614;SDS011;64199;48.578;-4.520;2024-03-07T11:41:13;0.30;;;0.30;;
75614;SDS011;64199;48.578;-4.520;2024-03-07T11:43:42;0.32;;;0.32;;
75614;SDS011;64199;48.578;-4.520;2024-03-07T11:46:08;0.40;;;0.30;;
75614;SDS011;64199;48.578;-4.520;2024-03-07T11:48:39;0.55;;;0.38;;
75614;SDS011;64199;48.578;-4.520;2024-03-07T11:51:13;0.70;;;0.38;;
75614;SDS011;64199;48.578;-4.520;2024-03-07T11:53:40;0.40;;;0.40;;
75614;SDS011;64199;48.578;-4.520;2024-03-07T11:56:06;0.77;;;0.47;;
75614;SDS011;64199;48.578;-4.520;2024-03-07T12:01:06;0.57;;;0.50;;
75614;SDS011;64199;48.578;-4.520;2024-03-07T12:03:38;0.47;;;0.40;;
75614;SDS011;64199;48.578;-4.520;2024-03-07T12:06:04;0.55;;;0.40;;
75614;SDS011;64199;48.578;-4.520;2024-03-07T12:08:30;0.25;;;0.20;;
75614;SDS011;64199;48.578;-4.520;2024-03-07T12:10:56;0.38;;;0.38;;
75614;SDS011;64199;48.578;-4.520;2024-03-07T12:13:23;0.20;;;0.20;;
75614;SDS011;64199;48.578;-4.520;2024-03-07T12:15:50;0.60;;;0.40;;
75614;SDS011;64199;48.578;-4.520;2024-03-07T12:18:20;0.52;;;0.50;;
75614;SDS011;64199;48.578;-4.520;2024-03-07T12:20:49;1.75;;;0.30;;
75614;SDS011;64199;48.578;-4.520;2024-03-07T12:23:19;0.70;;;0.40;;
75614;SDS011;64199;48.578;-4.520;2024-03-07T12:25:58;0.40;;;0.40;;
75614;SDS011;64199;48.578;-4.520;2024-03-07T12:28:27;0.65;;;0.40;;
75614;SDS011;64199;48.578;-4.520;2024-03-07T12:30:58;1.10;;;0.35;;
75614;SDS011;64199;48.578;-4.520;2024-03-07T12:33:27;0.60;;;0.40;;
75614;SDS011;64199;48.578;-4.520;2024-03-07T12:35:56;0.20;;;0.20;;
75614;SDS011;64199;48.578;-4.520;2024-03-07T12:38:30;0.20;;;0.20;;
75614;SDS011;64199;48.578;-4.520;2024-03-07T12:43:42;0.30;;;0.30;;
75614;SDS011;64199;48.578;-4.520;2024-03-07T12:46:10;0.20;;;0.20;;
75614;SDS011;64199;48.578;-4.520;2024-03-07T12:48:42;0.40;;;0.32;;
75614;SDS011;64199;48.578;-4.520;2024-03-07T12:51:09;0.50;;;0.30;;
75614;SDS011;64199;48.578;-4.520;2024-03-07T12:53:35;0.35;;;0.32;;
75614;SDS011;64199;48.578;-4.520;2024-03-07T12:56:02;0.20;;;0.20;;
75614;SDS011;64199;48.578;-4.520;2024-03-07T12:58:28;0.20;;;0.20;;
75614;SDS011;64199;48.578;-4.520;2024-03-07T13:00:55;0.20;;;0.20;;
75614;SDS011;64199;48.578;-4.520;2024-03-07T13:03:22;0.28;;;0.28;;
75614;SDS011;64199;48.578;-4.520;2024-03-07T13:05:52;0.25;;;0.17;;
75614;SDS011;64199;48.578;-4.520;2024-03-07T13:08:20;0.20;;;0.20;;
75614;SDS011;64199;48.578;-4.520;2024-03-07T13:10:50;0.30;;;0.30;;
75614;SDS011;64199;48.578;-4.520;2024-03-07T13:13:16;0.88;;;0.30;;
75614;SDS011;64199;48.578;-4.520;2024-03-07T13:15:42;0.20;;;0.20;;
75614;SDS011;64199;48.578;-4.520;2024-03-07T13:18:12;0.40;;;0.40;;
75614;SDS011;64199;48.578;-4.520;2024-03-07T13:20:38;0.20;;;0.20;;
75614;SDS011;64199;48.578;-4.520;2024-03-07T13:23:08;1.27;;;0.30;;
75614;SDS011;64199;48.578;-4.520;2024-03-07T13:25:35;0.20;;;0.20;;
75614;SDS011;64199;48.578;-4.520;2024-03-07T13:28:06;0.20;;;0.20;;
75614;SDS011;64199;48.578;-4.520;2024-03-07T13:30:49;0.70;;;0.30;;
75614;SDS011;64199;48.578;-4.520;2024-03-07T13:33:15;0.22;;;0.20;;
75614;SDS011;64199;48.578;-4.520;2024-03-07T13:35:41;0.93;;;0.40;;
75614;SDS011;64199;48.578;-4.520;2024-03-07T13:38:07;0.43;;;0.38;;
75614;SDS011;64199;48.578;-4.520;2024-03-07T13:40:33;0.57;;;0.30;;
75614;SDS011;64199;48.578;-4.520;2024-03-07T13:43:06;0.30;;;0.30;;
75614;SDS011;64199;48.578;-4.520;2024-03-07T13:45:33;0.32;;;0.20;;
75614;SDS011;64199;48.578;-4.520;2024-03-07T13:48:08;0.20;;;0.20;;
75614;SDS011;64199;48.578;-4.520;2024-03-07T13:50:35;0.28;;;0.28;;
75614;SDS011;64199;48.578;-4.520;2024-03-07T13:53:03;1.48;;;0.30;;
75614;SDS011;64199;48.578;-4.520;2024-03-07T14:32:40;0.22;;;0.22;;
75614;SDS011;64199;48.578;-4.520;2024-03-07T14:37:54;0.20;;;0.20;;
75614;SDS011;64199;48.578;-4.520;2024-03-07T14:40:32;0.30;;;0.30;;
75614;SDS011;64199;48.578;-4.520;2024-03-07T14:43:00;0.30;;;0.20;;
75614;SDS011;64199;48.578;-4.520;2024-03-07T14:45:31;0.57;;;0.30;;
75614;SDS011;64199;48.578;-4.520;2024-03-07T14:48:03;0.38;;;0.30;;
75614;SDS011;64199;48.578;-4.520;2024-03-07T14:50:29;0.30;;;0.30;;
75614;SDS011;64199;48.578;-4.520;2024-03-07T14:52:58;0.20;;;0.20;;
75614;SDS011;64199;48.578;-4.520;2024-03-07T14:55:24;0.38;;;0.30;;
75614;SDS011;64199;48.578;-4.520;2024-03-07T14:57:50;0.47;;;0.20;;
75614;SDS011;64199;48.578;-4.520;2024-03-07T15:00:16;0.57;;;0.40;;
75614;SDS011;64199;48.578;-4.520;2024-03-07T15:02:51;0.40;;;0.30;;
75614;SDS011;64199;48.578;-4.520;2024-03-07T15:05:22;0.30;;;0.30;;
75614;SDS011;64199;48.578;-4.520;2024-03-07T15:07:52;0.20;;;0.20;;
75614;SDS011;64199;48.578;-4.520;2024-03-07T15:12:49;0.20;;;0.20;;
75614;SDS011;64199;48.578;-4.520;2024-03-07T15:15:16;0.52;;;0.38;;
75614;SDS011;64199;48.578;-4.520;2024-03-07T15:17:44;0.45;;;0.40;;
75614;SDS011;64199;48.578;-4.520;2024-03-07T15:20:11;0.40;;;0.40;;
75614;SDS011;64199;48.578;-4.520;2024-03-07T15:22:56;0.38;;;0.30;;
75614;SDS011;64199;48.578;-4.520;2024-03-07T15:25:26;0.30;;;0.30;;
75614;SDS011;64199;48.578;-4.520;2024-03-07T15:27:53;0.28;;;0.28;;
75614;SDS011;64199;48.578;-4.520;2024-03-07T15:30:24;0.20;;;0.20;;
75614;SDS011;64199;48.578;-4.520;2024-03-07T15:33:04;0.30;;;0.30;;
75614;SDS011;64199;48.578;-4.520;2024-03-07T15:35:30;0.30;;;0.30;;
75614;SDS011;64199;48.578;-4.520;2024-03-07T15:37:56;0.20;;;0.20;;
75614;SDS011;64199;48.578;-4.520;2024-03-07T15:40:22;0.52;;;0.47;;
75614;SDS011;64199;48.578;-4.520;2024-03-07T15:42:54;0.30;;;0.30;;
75614;SDS011;64199;48.578;-4.520;2024-03-07T15:45:24;0.28;;;0.25;;